Time;durP1;ratioP1;P1;durP2;ratioP2;P2;SDS_P1;SDS_P2;PMS_P1;PMS_P2;Temp;Humidity;BMP_temperature;BMP_pressure;BME280_temperature;BME280_humidity;BME280_pressure;Samples;Min_cycle;Max_cycle;Signal;HPM_P1;HPM_P2
2022/10/04 00:01:52;;;;;;;7.53;3.60;;;19.30;40.60;;;;;;20745817;28;20468;-57
2022/10/04 00:11:55;;;;;;;5.95;2.53;;;19.30;41.00;;;;;;20994704;28;20461;-58
2022/10/04 00:22:06;;;;;;;5.03;2.13;;;19.20;41.00;;;;;;20974978;28;20412;-57
2022/10/04 00:32:10;;;;;;;6.85;2.35;;;19.20;41.30;;;;;;21004647;28;20052;-58
2022/10/04 00:42:18;;;;;;;5.53;2.22;;;18.90;42.20;;;;;;21006760;28;20057;-59
2022/10/04 00:52:26;;;;;;;7.35;2.17;;;18.60;42.70;;;;;;21007698;28;20056;-58
2022/10/04 01:02:57;;;;;;;17.02;2.78;;;18.40;42.80;;;;;;21005716;28;20132;-58
2022/10/04 01:13:11;;;;;;;10.23;2.50;;;18.40;42.60;;;;;;21004627;28;20059;-58
2022/10/04 01:23:44;;;;;;;9.37;2.40;;;18.30;43.20;;;;;;21004814;28;20040;-58
2022/10/04 01:33:48;;;;;;;6.88;3.60;;;18.20;43.40;;;;;;21003362;28;20138;-57
2022/10/04 01:43:57;;;;;;;4.93;2.22;;;18.10;44.00;;;;;;21000976;28;20053;-60
2022/10/04 01:54:13;;;;;;;9.98;2.30;;;18.00;43.90;;;;;;21001850;28;20504;-57
2022/10/04 02:04:23;;;;;;;6.65;2.00;;;17.90;44.20;;;;;;21001030;28;20040;-59
2022/10/04 02:14:28;;;;;;;5.22;2.05;;;17.70;44.90;;;;;;21000095;28;20048;-59
2022/10/04 02:24:41;;;;;;;8.60;2.35;;;17.60;45.20;;;;;;20998789;28;20048;-59
2022/10/04 02:34:45;;;;;;;7.85;2.35;;;17.60;45.80;;;;;;20999164;28;20048;-58
2022/10/04 02:45:01;;;;;;;6.20;2.00;;;17.30;46.30;;;;;;20996639;28;20060;-58
2022/10/04 02:55:19;;;;;;;9.65;2.28;;;17.20;46.20;;;;;;20996919;28;20184;-59
2022/10/04 03:05:23;;;;;;;6.95;2.42;;;17.20;46.10;;;;;;20996530;28;20098;-57
2022/10/04 03:15:25;;;;;;;7.37;2.77;;;17.20;45.80;;;;;;20996056;28;20070;-58
2022/10/04 03:25:44;;;;;;;6.28;2.00;;;17.20;45.50;;;;;;20995934;28;20144;-57
2022/10/04 03:35:53;;;;;;;8.32;2.47;;;17.10;46.10;;;;;;20976886;28;20072;-56
2022/10/04 03:45:57;;;;;;;7.90;2.40;;;16.80;46.80;;;;;;20994666;28;20070;-59
2022/10/04 03:56:00;;;;;;;4.47;1.90;;;16.70;45.80;;;;;;20994008;28;20051;-58
2022/10/04 04:06:10;;;;;;;4.77;2.60;;;16.70;45.90;;;;;;21004777;28;20570;-57
2022/10/04 04:16:13;;;;;;;8.10;2.63;;;16.60;46.50;;;;;;21010444;28;20777;-57
2022/10/04 04:26:23;;;;;;;9.90;2.28;;;16.40;46.80;;;;;;21009175;28;20451;-59
2022/10/04 04:36:40;;;;;;;8.38;2.15;;;16.40;46.90;;;;;;21007284;28;20469;-58
2022/10/04 04:46:44;;;;;;;16.55;2.95;;;16.30;46.90;;;;;;21006558;28;20420;-58
2022/10/04 04:56:49;;;;;;;5.97;3.08;;;16.20;47.50;;;;;;21006192;28;20041;-60
2022/10/04 05:07:05;;;;;;;11.88;2.65;;;16.10;48.00;;;;;;20986844;28;20052;-58
2022/10/04 05:17:07;;;;;;;10.52;3.00;;;16.00;48.80;;;;;;21006154;28;20126;-57
2022/10/04 05:27:36;;;;;;;10.73;3.42;;;16.00;48.60;;;;;;21004961;28;20489;-58
2022/10/04 05:38:06;;;;;;;16.48;3.78;;;16.00;48.60;;;;;;21002710;28;20045;-57
2022/10/04 05:48:08;;;;;;;11.60;3.80;;;16.00;48.80;;;;;;21001947;28;20063;-57
2022/10/04 05:58:32;;;;;;;11.52;3.72;;;16.00;49.50;;;;;;21002121;28;20167;-57
2022/10/04 06:09:19;;;;;;;11.60;3.60;;;16.00;49.10;;;;;;21000283;28;20052;-61
2022/10/04 06:19:39;;;;;;;15.07;4.05;;;16.00;49.10;;;;;;20999606;28;20049;-58
2022/10/04 06:30:02;;;;;;;10.07;3.80;;;16.00;49.30;;;;;;20997966;28;20053;-59
2022/10/04 06:40:16;;;;;;;17.27;4.38;;;15.90;49.80;;;;;;20964470;28;20412;-57
2022/10/04 06:50:43;;;;;;;13.60;4.90;;;15.90;50.00;;;;;;20997830;28;20508;-58
2022/10/04 07:01:13;;;;;;;13.68;4.03;;;16.00;50.40;;;;;;20996499;28;20531;-57
2022/10/04 07:11:36;;;;;;;10.80;3.20;;;16.10;49.80;;;;;;20658964;28;20076;-59
2022/10/04 07:21:53;;;;;;;14.32;4.38;;;16.10;49.40;;;;;;20658765;28;20077;-56
2022/10/04 07:32:06;;;;;;;13.00;3.72;;;16.10;49.40;;;;;;20657805;28;20062;-57
2022/10/04 07:42:44;;;;;;;18.33;4.30;;;16.20;49.10;;;;;;20764723;28;20045;-57
2022/10/04 07:53:12;;;;;;;11.02;3.28;;;16.40;48.40;;;;;;20986752;28;20135;-58
2022/10/04 08:03:16;;;;;;;17.70;3.70;;;16.60;47.30;;;;;;21010675;28;20062;-58
2022/10/04 08:13:32;;;;;;;12.95;3.70;;;16.80;47.10;;;;;;21010946;28;20056;-58
2022/10/04 08:23:52;;;;;;;16.48;3.95;;;17.20;46.60;;;;;;21009928;28;20045;-56
2022/10/04 08:34:20;;;;;;;13.05;4.40;;;17.40;45.70;;;;;;20990165;28;20082;-58
2022/10/04 08:45:15;;;;;;;16.52;4.35;;;17.70;44.80;;;;;;21006655;28;20558;-57
2022/10/04 08:55:38;;;;;;;17.95;5.60;;;18.20;44.40;;;;;;20668802;28;20077;-57
2022/10/04 09:05:52;;;;;;;15.32;5.40;;;18.60;44.30;;;;;;20669076;28;20133;-58
2022/10/04 09:16:01;;;;;;;12.90;4.28;;;19.10;43.50;;;;;;20668268;28;20490;-61
2022/10/04 09:26:19;;;;;;;11.55;4.55;;;19.50;44.40;;;;;;20867584;28;20052;-61
2022/10/04 09:36:43;;;;;;;21.25;5.63;;;20.60;42.90;;;;;;21004109;28;20056;-59
2022/10/04 09:47:07;;;;;;;22.07;5.97;;;20.70;41.40;;;;;;21002335;28;20059;-60
2022/10/04 09:57:33;;;;;;;13.35;5.55;;;21.00;40.30;;;;;;20984695;28;20044;-59
2022/10/04 10:07:45;;;;;;;24.48;8.05;;;21.30;40.00;;;;;;21001674;28;20059;-58
2022/10/04 10:18:07;;;;;;;19.17;6.10;;;21.70;40.50;;;;;;21000499;28;20048;-60
2022/10/04 10:29:03;;;;;;;21.13;7.20;;;22.00;38.30;;;;;;20998777;28;20056;-60
2022/10/04 10:39:26;;;;;;;18.98;4.43;;;22.30;37.20;;;;;;20978833;28;20052;-61
2022/10/04 10:49:58;;;;;;;12.35;4.53;;;22.60;36.60;;;;;;20996979;28;20056;-58
2022/10/04 11:00:06;;;;;;;10.18;4.45;;;22.90;35.50;;;;;;20997472;28;20423;-60
2022/10/04 11:10:10;;;;;;;11.02;4.43;;;23.30;34.90;;;;;;20995924;28;20048;-61
2022/10/04 11:20:25;;;;;;;10.57;4.60;;;23.60;34.60;;;;;;20995697;28;20048;-60
2022/10/04 11:30:50;;;;;;;10.10;3.70;;;23.90;33.80;;;;;;20994988;28;20182;-58
2022/10/04 11:41:20;;;;;;;12.85;4.03;;;24.20;33.00;;;;;;20657765;28;20507;-59
2022/10/04 11:51:47;;;;;;;14.38;4.78;;;24.40;32.80;;;;;;20657780;28;20050;-58
2022/10/04 12:02:27;;;;;;;15.50;3.90;;;24.70;31.40;;;;;;20657547;28;20046;-60
2022/10/04 12:12:48;;;;;;;16.35;3.45;;;25.10;31.00;;;;;;20772594;28;20135;-57
2022/10/04 12:23:16;;;;;;;14.35;4.97;;;25.30;30.30;;;;;;20996751;28;20049;-59
2022/10/04 12:33:22;;;;;;;16.00;4.30;;;25.50;29.90;;;;;;21007688;28;20153;-59
2022/10/04 12:43:29;;;;;;;13.00;3.08;;;25.90;29.40;;;;;;21007525;28;20131;-60
2022/10/04 12:53:48;;;;;;;14.65;2.85;;;26.10;29.20;;;;;;21007228;28;20064;-60
2022/10/04 13:03:53;;;;;;;19.63;4.15;;;26.30;28.50;;;;;;21005237;28;20053;-61
2022/10/04 13:14:12;;;;;;;11.90;4.13;;;26.50;28.10;;;;;;21004045;28;20084;-58
2022/10/04 13:24:53;;;;;;;21.65;3.15;;;26.70;27.80;;;;;;21003545;28;20087;-57
2022/10/04 13:35:13;;;;;;;13.67;3.90;;;26.80;27.50;;;;;;21002078;28;20404;-65
2022/10/04 13:45:24;;;;;;;14.70;3.83;;;26.90;27.90;;;;;;21002239;28;20408;-57
2022/10/04 14:05:54;;;;;;;12.88;3.50;;;27.30;27.30;;;;;;21001692;28;20057;-59
2022/10/04 14:16:02;;;;;;;18.83;3.97;;;27.20;27.50;;;;;;21001042;28;20497;-59
2022/10/04 14:26:23;;;;;;;24.38;4.28;;;27.40;26.80;;;;;;20999291;28;20052;-61
2022/10/04 14:37:03;;;;;;;25.37;4.97;;;27.50;26.70;;;;;;20998557;28;20052;-59
2022/10/04 14:47:19;;;;;;;19.20;4.47;;;27.40;26.80;;;;;;20996866;28;20113;-57
2022/10/04 14:57:53;;;;;;;22.67;5.93;;;27.60;27.00;;;;;;20979137;28;20093;-59
2022/10/04 15:08:14;;;;;;;20.08;6.00;;;27.90;25.90;;;;;;20996297;28;20044;-59
2022/10/04 15:18:48;;;;;;;28.87;5.57;;;27.60;26.70;;;;;;20995365;28;20111;-62
2022/10/04 15:28:52;;;;;;;20.05;5.72;;;27.80;26.00;;;;;;20965412;28;20488;-59
2022/10/04 15:39:03;;;;;;;23.45;6.30;;;27.70;26.20;;;;;;20996231;28;20048;-59
2022/10/04 15:49:14;;;;;;;20.70;5.60;;;27.60;26.70;;;;;;20994261;28;20102;-59
2022/10/04 15:59:22;;;;;;;25.17;5.78;;;27.70;25.60;;;;;;20999631;28;20048;-60
2022/10/04 16:09:29;;;;;;;23.65;6.47;;;27.60;26.20;;;;;;21010783;28;20515;-59
2022/10/04 16:19:31;;;;;;;24.45;6.47;;;27.60;26.00;;;;;;20991928;28;20382;-61
2022/10/04 16:30:04;;;;;;;24.42;6.93;;;27.20;27.00;;;;;;21009028;28;20049;-59
2022/10/04 16:40:10;;;;;;;32.80;6.35;;;27.40;26.50;;;;;;21008042;28;20071;-58
2022/10/04 16:50:32;;;;;;;29.63;6.18;;;27.10;26.80;;;;;;21007874;28;20063;-61
2022/10/04 17:00:36;;;;;;;25.35;6.60;;;27.00;27.00;;;;;;21006330;28;20507;-58
2022/10/04 17:10:47;;;;;;;22.75;6.32;;;26.70;27.80;;;;;;21005107;28;20048;-62
2022/10/04 17:20:58;;;;;;;27.73;7.22;;;26.60;28.30;;;;;;21004917;28;20048;-57
2022/10/04 17:31:32;;;;;;;32.83;10.20;;;26.20;28.60;;;;;;21003817;28;20044;-61
2022/10/04 17:42:05;;;;;;;38.40;15.57;;;26.10;29.20;;;;;;21002950;28;20052;-58
2022/10/04 17:55:14;;;;;;;26.42;8.05;;;25.80;29.80;;;;;;21001892;28;20087;-59
2022/10/04 18:03:07;;;;;;;30.75;10.50;;;25.60;29.90;;;;;;21001124;28;20105;-61
2022/10/04 18:13:22;;;;;;;29.83;10.13;;;25.30;30.20;;;;;;20982618;28;20055;-59
2022/10/04 18:23:27;;;;;;;33.33;11.65;;;25.10;30.50;;;;;;20999599;28;20057;-62
2022/10/04 18:33:30;;;;;;;35.72;15.13;;;25.00;31.20;;;;;;21045783;28;20075;-65
2022/10/04 18:43:40;;;;;;;29.55;9.07;;;24.80;32.80;;;;;;21065669;28;20056;-61
2022/10/04 18:53:44;;;;;;;29.60;9.88;;;24.70;33.80;;;;;;21081932;28;20157;-62
2022/10/04 19:03:57;;;;;;;34.10;8.68;;;24.40;35.30;;;;;;21079739;28;20048;-58
2022/10/04 19:14:34;;;;;;;39.63;9.88;;;24.30;33.50;;;;;;21079783;28;20424;-64
2022/10/04 19:24:54;;;;;;;36.25;9.57;;;24.20;33.50;;;;;;21079333;28;20412;-59
2022/10/04 19:35:05;;;;;;;34.00;11.18;;;24.10;33.70;;;;;;21080279;28;20181;-65
2022/10/04 19:45:32;;;;;;;28.60;8.68;;;24.10;34.30;;;;;;21078564;28;20056;-60
2022/10/04 19:55:47;;;;;;;29.40;9.18;;;23.80;33.90;;;;;;21079849;28;20059;-59
2022/10/04 20:05:53;;;;;;;31.20;10.27;;;23.60;34.60;;;;;;21078181;28;20143;-62
2022/10/04 20:15:59;;;;;;;29.40;7.28;;;23.30;35.50;;;;;;21079123;28;20044;-59
2022/10/04 20:26:01;;;;;;;23.15;8.43;;;23.20;35.70;;;;;;21077381;28;20520;-60
2022/10/04 20:36:10;;;;;;;29.90;9.02;;;23.10;35.80;;;;;;21076519;28;20047;-62
2022/10/04 20:46:22;;;;;;;22.00;7.88;;;23.00;36.10;;;;;;21081982;28;20098;-59
2022/10/04 20:56:32;;;;;;;26.83;7.13;;;22.80;36.10;;;;;;21090474;28;20086;-60
2022/10/04 21:06:50;;;;;;;30.95;7.43;;;22.70;35.50;;;;;;21089871;28;20059;-58
2022/10/04 21:16:56;;;;;;;32.10;7.20;;;22.60;35.10;;;;;;21089358;28;20059;-59
2022/10/04 21:26:57;;;;;;;31.77;6.20;;;22.50;36.00;;;;;;21087900;28;20044;-57
2022/10/04 21:36:59;;;;;;;49.80;7.68;;;22.10;36.40;;;;;;21088295;28;20057;-58
2022/10/04 21:47:01;;;;;;;37.78;7.40;;;21.90;36.80;;;;;;21087051;28;20056;-61
2022/10/04 21:57:02;;;;;;;32.58;7.43;;;21.80;36.90;;;;;;21085568;28;20438;-63
2022/10/04 22:07:04;;;;;;;33.03;6.93;;;21.70;37.30;;;;;;21067401;28;20450;-60
2022/10/04 22:17:06;;;;;;;34.40;7.22;;;21.60;37.90;;;;;;21084345;28;20055;-62
2022/10/04 22:27:17;;;;;;;33.47;7.20;;;21.30;38.20;;;;;;21084026;28;20449;-59
2022/10/04 22:37:23;;;;;;;32.42;7.10;;;21.20;38.50;;;;;;21082666;28;20048;-58
2022/10/04 22:47:24;;;;;;;34.80;8.13;;;21.10;39.20;;;;;;21082016;28;20083;-57
2022/10/04 22:57:28;;;;;;;33.40;7.03;;;20.80;40.40;;;;;;21081252;28;20069;-62
2022/10/04 23:07:30;;;;;;;36.70;8.25;;;20.70;40.80;;;;;;21080558;28;20122;-58
2022/10/04 23:17:35;;;;;;;;;;;20.60;40.60;;;;;;21080624;28;20040;-58
2022/10/04 23:27:37;;;;;;;;;;;20.50;40.70;;;;;;21080343;28;19971;-63
2022/10/04 23:37:39;;;;;;;50.08;10.32;;;20.30;41.30;;;;;;21079657;28;19920;-58
2022/10/04 23:47:40;;;;;;;35.30;8.13;;;20.40;41.30;;;;;;21079463;28;20078;-59
2022/10/04 23:57:49;;;;;;;41.22;10.27;;;20.50;40.60;;;;;;21079849;28;20544;-58
